Time;durP1;ratioP1;P1;durP2;ratioP2;P2;SDS_P1;SDS_P2;PMS_P1;PMS_P2;Temp;Humidity;BMP_temperature;BMP_pressure;BME280_temperature;BME280_humidity;BME280_pressure;Samples;Min_cycle;Max_cycle;Signal;HPM_P1;HPM_P2
2021/03/04 00:02:15;;;;;;;73.10;28.75;;;;;;;7.29;96.10;101593.69;4999861;28;20056;-76
2021/03/04 00:04:41;;;;;;;71.03;27.70;;;;;;;7.33;96.10;101583.94;4997908;28;20041;-76
2021/03/04 00:07:06;;;;;;;76.28;30.20;;;;;;;7.22;96.30;101583.41;5010740;28;20091;-76
2021/03/04 00:09:32;;;;;;;72.35;27.48;;;;;;;7.18;96.78;101590.50;4993628;28;20034;-76
2021/03/04 00:11:57;;;;;;;75.97;28.85;;;;;;;7.13;96.78;101585.28;5011299;28;20565;-76
2021/03/04 00:14:23;;;;;;;75.68;29.58;;;;;;;7.17;97.36;101585.44;4994478;28;20422;-75
2021/03/04 00:16:49;;;;;;;82.05;30.58;;;;;;;7.18;97.12;101593.16;5009635;28;20134;-76
2021/03/04 00:19:14;;;;;;;75.28;29.42;;;;;;;7.20;96.94;101595.56;5011632;28;20030;-76
2021/03/04 00:21:40;;;;;;;81.25;29.75;;;;;;;7.18;97.44;101595.84;5008031;28;20084;-76
2021/03/04 00:24:06;;;;;;;75.63;28.35;;;;;;;7.18;97.53;101595.09;5010740;28;20026;-76
2021/03/04 00:26:31;;;;;;;77.40;28.38;;;;;;;7.18;97.41;101595.84;4995689;28;20122;-76
2021/03/04 00:28:56;;;;;;;70.00;26.83;;;;;;;7.24;97.67;101594.63;4978847;28;20049;-76
2021/03/04 00:31:22;;;;;;;72.85;26.98;;;;;;;7.09;97.79;101589.66;5002266;28;20540;-75
2021/03/04 00:33:47;;;;;;;66.28;25.20;;;;;;;7.11;97.84;101584.78;4991904;28;20062;-76
2021/03/04 00:36:13;;;;;;;60.38;26.38;;;;;;;7.11;98.16;101586.69;4990454;28;20034;-76
2021/03/04 00:38:38;;;;;;;68.68;26.90;;;;;;;7.07;98.45;101581.16;4992286;28;20088;-76
2021/03/04 00:41:04;;;;;;;69.50;26.80;;;;;;;6.93;99.40;101585.78;4990592;28;20029;-76
2021/03/04 00:43:29;;;;;;;66.90;26.90;;;;;;;6.92;100.00;101578.09;5011290;28;20022;-76
2021/03/04 00:45:55;;;;;;;64.95;26.40;;;;;;;6.92;99.70;101576.19;4985141;28;20512;-76
2021/03/04 00:48:20;;;;;;;66.45;26.85;;;;;;;6.90;99.22;101574.91;5005964;28;20045;-76
2021/03/04 00:50:45;;;;;;;66.13;27.33;;;;;;;6.92;100.00;101575.41;5000582;28;20041;-74
2021/03/04 00:53:11;;;;;;;70.70;27.98;;;;;;;7.12;99.22;101569.53;4996581;28;20030;-76
2021/03/04 00:55:36;;;;;;;80.05;31.20;;;;;;;6.99;99.96;101567.72;5006676;28;20140;-76
2021/03/04 00:58:02;;;;;;;74.68;31.17;;;;;;;6.94;100.00;101562.50;5010495;28;20486;-75
2021/03/04 01:00:28;;;;;;;78.60;31.60;;;;;;;6.87;100.00;101568.28;5033852;22;20052;-76
2021/03/04 01:02:55;;;;;;;79.88;32.65;;;;;;;6.95;100.00;101561.41;5025252;28;20038;-76
2021/03/04 01:05:21;;;;;;;81.03;32.47;;;;;;;7.03;98.81;101572.16;5025545;28;20033;-76
2021/03/04 01:07:46;;;;;;;79.00;32.30;;;;;;;7.05;98.08;101569.16;5032802;28;20044;-76
2021/03/04 01:10:15;;;;;;;79.72;32.67;;;;;;;6.98;98.91;101564.25;5020534;28;20117;-75
2021/03/04 01:12:40;;;;;;;79.68;32.15;;;;;;;6.98;98.81;101566.94;5019885;28;20091;-76
2021/03/04 01:15:28;;;;;;;82.50;33.75;;;;;;;6.86;99.22;101573.94;5028264;28;20063;-75
2021/03/04 01:17:53;;;;;;;73.20;31.35;;;;;;;6.78;99.29;101572.81;4965332;28;20039;-76
2021/03/04 01:20:20;;;;;;;75.45;31.38;;;;;;;6.76;99.28;101569.66;4966691;28;20053;-77
2021/03/04 01:22:45;;;;;;;81.13;32.22;;;;;;;6.80;99.74;101564.47;4965112;28;20167;-76
2021/03/04 01:25:12;;;;;;;73.93;29.92;;;;;;;6.83;100.00;101555.84;4968564;28;20092;-76
2021/03/04 01:27:38;;;;;;;61.35;26.23;;;;;;;6.84;99.41;101550.16;4951709;28;20039;-76
2021/03/04 01:30:06;;;;;;;56.97;25.23;;;;;;;6.84;98.18;101550.16;4968600;28;20175;-76
2021/03/04 01:32:31;;;;;;;56.65;25.88;;;;;;;6.76;98.36;101542.88;4964830;28;20153;-76
2021/03/04 01:34:57;;;;;;;50.30;23.42;;;;;;;6.63;98.40;101541.06;4972445;28;20672;-76
2021/03/04 01:37:22;;;;;;;48.22;21.50;;;;;;;6.42;99.12;101540.00;4972688;28;20030;-76
2021/03/04 01:39:47;;;;;;;46.22;20.80;;;;;;;6.42;99.23;101544.56;4969295;28;20102;-76
2021/03/04 01:42:13;;;;;;;45.58;21.30;;;;;;;6.33;99.73;101544.47;4972255;28;20051;-75
2021/03/04 01:44:38;;;;;;;46.58;21.15;;;;;;;6.21;99.96;101541.59;4971842;28;20035;-76
2021/03/04 01:47:04;;;;;;;47.80;20.60;;;;;;;6.32;100.00;101542.91;4968925;28;20038;-77
2021/03/04 01:49:30;;;;;;;48.03;20.10;;;;;;;6.47;98.89;101539.88;4969436;28;20043;-76
2021/03/04 01:51:55;;;;;;;47.45;19.85;;;;;;;6.44;98.79;101534.34;4966984;28;20046;-76
2021/03/04 01:54:21;;;;;;;48.50;20.98;;;;;;;6.37;98.79;101538.22;4985119;28;20049;-76
2021/03/04 01:56:46;;;;;;;51.15;21.58;;;;;;;6.39;98.71;101532.56;5034046;28;20411;-76
2021/03/04 01:59:12;;;;;;;41.60;19.05;;;;;;;6.35;98.44;101531.59;5028197;28;20038;-76
2021/03/04 02:01:37;;;;;;;37.00;17.48;;;;;;;6.24;98.13;101536.41;5026410;28;20414;-76
2021/03/04 02:04:04;;;;;;;37.45;16.83;;;;;;;6.20;98.18;101526.63;5031918;28;20029;-76
2021/03/04 02:06:39;;;;;;;35.15;15.52;;;;;;;6.13;98.42;101535.09;5033002;28;20049;-75
2021/03/04 02:09:07;;;;;;;44.30;15.15;;;;;;;6.13;98.07;101534.28;5034198;28;20048;-75
2021/03/04 02:11:43;;;;;;;33.45;15.45;;;;;;;5.92;99.38;101533.94;5027679;28;20037;-76
2021/03/04 02:14:13;;;;;;;32.30;15.32;;;;;;;6.05;99.55;101527.78;5028443;28;20033;-76
2021/03/04 02:16:54;;;;;;;27.35;13.13;;;;;;;6.11;99.12;101525.78;5023507;28;20124;-75
2021/03/04 02:19:37;;;;;;;29.02;12.55;;;;;;;6.18;97.99;101528.81;5029794;28;20033;-76
2021/03/04 02:22:28;;;;;;;23.58;11.75;;;;;;;6.19;98.09;101523.16;5031753;28;20485;-76
2021/03/04 02:25:11;;;;;;;27.92;10.90;;;;;;;6.08;98.36;101518.34;5027361;28;20124;-76
2021/03/04 02:27:38;;;;;;;25.40;10.65;;;;;;;6.05;98.85;101518.97;5031932;28;20030;-76
2021/03/04 02:30:08;;;;;;;21.83;10.80;;;;;;;6.06;98.66;101517.84;5017537;28;20433;-77
2021/03/04 02:32:38;;;;;;;30.52;11.40;;;;;;;6.00;98.73;101511.06;5025340;28;20033;-76
2021/03/04 02:35:09;;;;;;;24.08;10.55;;;;;;;6.07;99.51;101516.78;5025408;28;20500;-75
2021/03/04 02:37:39;;;;;;;21.27;9.88;;;;;;;6.04;98.61;101520.06;5033222;28;20079;-76
2021/03/04 02:40:09;;;;;;;26.02;10.35;;;;;;;5.86;99.38;101505.75;5030996;28;20040;-76
2021/03/04 02:42:34;;;;;;;26.63;10.75;;;;;;;5.88;100.00;101502.78;5023960;28;20076;-76
2021/03/04 02:45:01;;;;;;;22.98;10.73;;;;;;;6.02;99.93;101506.22;5030959;28;20413;-76
2021/03/04 02:47:27;;;;;;;23.05;10.23;;;;;;;6.09;99.05;101495.88;5027403;28;20033;-75
2021/03/04 02:49:53;;;;;;;20.65;10.05;;;;;;;6.13;98.34;101491.50;5023003;28;20038;-76
2021/03/04 02:52:19;;;;;;;19.40;9.07;;;;;;;6.15;98.03;101486.66;5032425;28;20037;-76
2021/03/04 02:54:46;;;;;;;22.00;9.40;;;;;;;6.00;98.51;101485.09;5025071;28;20041;-76
2021/03/04 02:57:13;;;;;;;20.48;9.65;;;;;;;6.01;98.99;101486.69;5032768;28;20025;-76
2021/03/04 02:59:40;;;;;;;23.05;9.07;;;;;;;5.92;99.03;101491.16;5030453;28;20171;-75
2021/03/04 03:02:07;;;;;;;21.05;9.45;;;;;;;6.00;98.18;101479.75;5032355;28;20386;-76
2021/03/04 03:04:34;;;;;;;21.45;9.88;;;;;;;5.92;98.81;101479.72;5027659;28;20030;-76
2021/03/04 03:07:02;;;;;;;17.65;8.73;;;;;;;5.91;98.41;101484.25;5030978;28;20044;-76
2021/03/04 03:09:28;;;;;;;15.95;7.40;;;;;;;5.94;97.77;101482.88;5030469;28;20849;-76
2021/03/04 03:11:54;;;;;;;16.30;7.15;;;;;;;5.89;97.98;101478.44;5025723;28;20045;-76
2021/03/04 03:14:20;;;;;;;16.02;7.20;;;;;;;5.88;97.70;101468.84;5026847;28;20056;-76
2021/03/04 03:16:46;;;;;;;15.10;6.55;;;;;;;5.89;97.92;101466.94;5024952;28;20033;-76
2021/03/04 03:19:11;;;;;;;14.48;7.05;;;;;;;5.90;97.49;101461.31;5027562;28;20036;-76
2021/03/04 03:21:37;;;;;;;14.77;6.50;;;;;;;5.93;97.07;101455.34;5031464;28;20112;-76
2021/03/04 03:24:02;;;;;;;13.40;6.32;;;;;;;5.84;97.48;101440.34;5025785;28;20117;-76
2021/03/04 03:26:28;;;;;;;18.05;6.88;;;;;;;5.85;97.18;101444.59;5025070;28;20029;-76
2021/03/04 03:28:54;;;;;;;15.02;6.45;;;;;;;5.73;98.80;101449.66;5028313;28;20048;-76
2021/03/04 03:31:21;;;;;;;13.40;6.55;;;;;;;5.74;99.22;101449.34;5029354;28;20034;-76
2021/03/04 03:33:46;;;;;;;14.38;6.63;;;;;;;5.78;98.33;101453.00;5031533;28;20033;-76
2021/03/04 03:36:13;;;;;;;15.10;6.85;;;;;;;5.89;98.16;101461.59;5023681;28;20096;-75
2021/03/04 03:38:40;;;;;;;16.17;6.65;;;;;;;5.88;97.84;101454.69;5030400;28;20116;-75
2021/03/04 03:41:07;;;;;;;14.60;6.82;;;;;;;5.81;98.11;101451.59;5027695;28;20448;-76
2021/03/04 03:43:34;;;;;;;14.48;6.72;;;;;;;5.85;98.78;101441.91;5031704;28;20029;-76
2021/03/04 03:46:00;;;;;;;16.35;7.35;;;;;;;5.87;98.66;101445.06;5031288;28;20033;-76
2021/03/04 03:48:27;;;;;;;15.50;6.97;;;;;;;5.70;98.17;101434.22;5027273;28;20041;-76
2021/03/04 03:50:54;;;;;;;16.05;7.07;;;;;;;5.76;99.89;101436.47;5022889;28;20035;-75
2021/03/04 03:53:21;;;;;;;20.35;7.60;;;;;;;5.77;99.48;101432.72;5022816;28;20413;-76
2021/03/04 03:55:48;;;;;;;16.88;7.65;;;;;;;5.75;99.07;101436.78;5026859;28;20052;-77
2021/03/04 03:58:16;;;;;;;14.32;7.13;;;;;;;5.87;98.92;101427.16;5021998;28;20555;-76
2021/03/04 04:00:44;;;;;;;15.68;7.95;;;;;;;5.93;98.09;101433.16;5022368;28;20044;-76
2021/03/04 04:03:10;;;;;;;14.02;6.70;;;;;;;5.96;98.62;101436.03;5025101;28;20025;-76
2021/03/04 04:05:37;;;;;;;16.35;6.85;;;;;;;5.93;97.77;101439.31;5020612;28;20121;-76
2021/03/04 04:08:03;;;;;;;13.65;7.15;;;;;;;5.92;98.99;101431.59;5030114;28;20429;-76
2021/03/04 04:10:31;;;;;;;15.05;7.38;;;;;;;5.96;98.91;101433.34;5029288;28;20025;-76
2021/03/04 04:12:57;;;;;;;13.70;6.30;;;;;;;6.01;98.03;101443.94;5021728;28;20036;-76
2021/03/04 04:15:25;;;;;;;15.00;7.28;;;;;;;5.78;99.25;101436.97;5030322;28;20075;-76
2021/03/04 04:17:51;;;;;;;14.23;7.00;;;;;;;5.96;98.47;101430.66;5027032;28;20048;-76
2021/03/04 04:20:17;;;;;;;14.32;6.22;;;;;;;5.97;98.50;101436.81;5030081;28;20108;-76
2021/03/04 04:22:44;;;;;;;12.48;6.72;;;;;;;5.99;98.76;101427.41;5030861;28;20045;-76
2021/03/04 04:25:11;;;;;;;16.98;7.03;;;;;;;5.96;98.16;101430.66;5031418;28;20029;-76
2021/03/04 04:27:37;;;;;;;14.23;7.15;;;;;;;6.00;98.59;101428.22;5024415;28;20108;-76
2021/03/04 04:30:05;;;;;;;17.10;7.60;;;;;;;6.08;98.08;101430.13;5029408;28;20108;-76
2021/03/04 04:32:30;;;;;;;12.57;6.55;;;;;;;6.02;98.14;101415.31;5023252;28;20108;-76
2021/03/04 04:34:56;;;;;;;9.65;5.28;;;;;;;6.10;96.17;101409.22;5029940;28;20117;-77
2021/03/04 04:37:21;;;;;;;8.90;5.25;;;;;;;6.06;95.14;101403.69;5025054;28;20393;-76
2021/03/04 04:39:47;;;;;;;12.70;5.45;;;;;;;5.97;96.07;101402.06;5029149;28;20062;-77
2021/03/04 04:42:12;;;;;;;9.60;5.15;;;;;;;6.02;96.04;101391.28;5026762;28;20069;-77
2021/03/04 04:44:37;;;;;;;9.40;4.97;;;;;;;5.76;96.27;101391.06;5029925;28;20032;-77
2021/03/04 04:47:03;;;;;;;9.15;4.93;;;;;;;5.83;97.43;101385.28;5029998;28;20424;-76
2021/03/04 04:49:28;;;;;;;10.05;4.75;;;;;;;6.01;95.81;101376.31;5029747;28;20489;-77
2021/03/04 04:51:54;;;;;;;9.93;5.18;;;;;;;6.10;94.06;101369.13;5014360;28;20061;-76
2021/03/04 04:54:19;;;;;;;6.80;4.63;;;;;;;6.02;94.53;101375.22;5025449;28;20056;-76
2021/03/04 04:56:44;;;;;;;8.55;4.72;;;;;;;5.96;93.71;101374.53;5026140;28;20025;-75
2021/03/04 04:59:10;;;;;;;8.20;4.82;;;;;;;5.96;94.09;101371.09;5028857;28;20427;-76
2021/03/04 05:01:35;;;;;;;9.77;4.97;;;;;;;6.05;93.70;101375.41;5009042;28;20120;-76
2021/03/04 05:04:01;;;;;;;11.52;4.80;;;;;;;6.07;93.48;101375.09;5017907;28;20025;-77
2021/03/04 05:06:26;;;;;;;8.80;5.22;;;;;;;6.02;93.89;101369.88;5018120;28;20190;-77
2021/03/04 05:08:51;;;;;;;8.88;4.93;;;;;;;6.01;93.88;101370.97;5024650;28;20041;-74
2021/03/04 05:11:17;;;;;;;8.02;4.50;;;;;;;6.11;93.34;101371.50;5025273;28;20561;-73
2021/03/04 05:13:44;;;;;;;10.02;4.55;;;;;;;6.14;92.39;101368.19;5023667;28;20037;-77
2021/03/04 05:16:10;;;;;;;8.52;4.63;;;;;;;6.09;92.32;101357.66;5027342;28;20032;-77
2021/03/04 05:18:35;;;;;;;9.20;5.03;;;;;;;6.15;92.61;101371.69;5020156;28;20398;-77
2021/03/04 05:21:01;;;;;;;8.82;5.15;;;;;;;6.02;92.90;101361.88;5017730;28;20044;-77
2021/03/04 05:23:26;;;;;;;9.35;5.07;;;;;;;6.05;92.92;101355.88;5016091;28;20038;-76
2021/03/04 05:25:52;;;;;;;10.02;5.07;;;;;;;6.09;92.61;101357.66;5020561;28;20063;-77
2021/03/04 05:28:17;;;;;;;10.52;5.53;;;;;;;6.14;92.31;101354.03;5014371;28;20068;-77
2021/03/04 05:30:43;;;;;;;8.23;5.30;;;;;;;6.11;92.17;101355.47;5023076;28;20121;-76
2021/03/04 05:33:08;;;;;;;9.73;5.60;;;;;;;6.11;92.58;101357.34;5017214;28;20450;-76
2021/03/04 05:35:34;;;;;;;11.65;5.32;;;;;;;6.21;92.02;101346.38;5006766;28;20037;-76
2021/03/04 05:37:59;;;;;;;8.32;5.13;;;;;;;6.15;91.69;101339.59;5012713;28;20049;-76
2021/03/04 05:40:25;;;;;;;10.07;5.47;;;;;;;6.10;91.74;101348.53;5008931;28;20030;-74
2021/03/04 05:42:52;;;;;;;9.27;5.60;;;;;;;6.14;91.61;101354.84;5017723;28;20038;-76
2021/03/04 05:45:19;;;;;;;11.90;5.82;;;;;;;6.13;91.61;101341.78;5019629;28;20044;-75
2021/03/04 05:47:47;;;;;;;11.13;5.90;;;;;;;6.13;91.96;101349.81;5013822;28;20072;-77
2021/03/04 05:50:14;;;;;;;12.82;7.30;;;;;;;6.20;90.75;101345.59;5009707;28;20693;-77
2021/03/04 05:52:44;;;;;;;12.00;6.90;;;;;;;6.18;90.45;101341.63;5023578;28;20056;-76
2021/03/04 05:55:11;;;;;;;10.23;6.10;;;;;;;6.19;90.78;101343.22;5011985;28;20701;-75
2021/03/04 05:57:38;;;;;;;15.02;6.95;;;;;;;6.19;91.02;101343.22;5008435;28;20580;-76
2021/03/04 06:00:04;;;;;;;10.48;5.32;;;;;;;6.15;90.27;101340.38;5022750;28;20045;-77
2021/03/04 06:02:31;;;;;;;9.73;5.45;;;;;;;6.16;90.96;101335.81;5022750;28;20045;-76
2021/03/04 06:04:57;;;;;;;11.32;5.70;;;;;;;6.16;90.74;101330.47;5022110;28;20220;-75
2021/03/04 06:07:22;;;;;;;8.27;4.88;;;;;;;6.16;90.74;101320.56;5020033;28;20129;-76
2021/03/04 06:09:48;;;;;;;8.70;4.75;;;;;;;6.11;90.10;101322.59;5018095;28;20050;-75
2021/03/04 06:12:13;;;;;;;9.38;5.18;;;;;;;6.05;91.42;101321.13;5013192;28;20084;-75
2021/03/04 06:14:39;;;;;;;10.70;4.55;;;;;;;6.10;91.51;101316.44;5012409;28;20045;-75
2021/03/04 06:17:30;;;;;;;9.60;5.07;;;;;;;6.13;90.66;101323.88;5010618;28;20030;-74
2021/03/04 06:19:56;;;;;;;;;;;;;;;6.05;91.38;101334.50;5023734;28;20085;-75
2021/03/04 06:22:46;;;;;;;8.73;4.60;;;;;;;6.09;91.33;101324.78;5020707;28;19917;-76
2021/03/04 06:25:12;;;;;;;10.30;4.82;;;;;;;6.06;91.17;101334.19;5021754;28;20079;-75
2021/03/04 06:27:40;;;;;;;8.82;4.93;;;;;;;6.15;91.52;101328.91;5022995;28;20033;-75
2021/03/04 06:30:11;;;;;;;10.27;4.97;;;;;;;6.21;90.68;101328.44;5019394;28;20052;-75
2021/03/04 06:32:39;;;;;;;10.48;5.40;;;;;;;6.26;90.38;101325.66;5023849;28;20029;-75
2021/03/04 06:35:05;;;;;;;8.63;5.50;;;;;;;6.20;90.95;101326.88;5007770;28;20528;-74
2021/03/04 06:37:31;;;;;;;10.43;4.90;;;;;;;6.19;91.19;101319.16;5030464;28;20030;-75
2021/03/04 06:39:57;;;;;;;8.75;5.15;;;;;;;6.25;91.43;101317.94;5031051;28;20033;-75
2021/03/04 06:42:23;;;;;;;12.57;5.28;;;;;;;6.29;90.93;101319.66;5033251;28;20037;-75
2021/03/04 06:44:54;;;;;;;7.22;4.82;;;;;;;6.37;90.83;101308.22;5030373;28;20040;-74
2021/03/04 06:47:24;;;;;;;10.50;5.30;;;;;;;6.33;90.37;101314.47;5027279;28;20424;-75
2021/03/04 06:49:51;;;;;;;9.32;5.00;;;;;;;6.28;91.17;101306.59;5023882;28;20044;-75
2021/03/04 06:52:32;;;;;;;13.15;5.65;;;;;;;6.23;91.02;101314.78;5017908;28;20034;-76
2021/03/04 06:55:08;;;;;;;;;;;;;;;6.34;90.78;101316.88;5016523;28;20045;-75
2021/03/04 06:57:33;;;;;;;13.60;5.05;;;;;;;6.32;91.07;101318.25;5015819;28;19916;-75
2021/03/04 06:59:59;;;;;;;9.48;5.15;;;;;;;6.36;90.70;101317.34;5018975;28;20401;-75
2021/03/04 07:02:29;;;;;;;8.63;5.05;;;;;;;6.31;91.01;101320.16;5026786;22;20038;-74
2021/03/04 07:04:56;;;;;;;8.57;5.15;;;;;;;6.35;91.37;101325.66;5008361;28;20515;-74
2021/03/04 07:07:22;;;;;;;8.05;5.22;;;;;;;6.28;91.91;101323.44;5001261;28;20410;-73
2021/03/04 07:09:49;;;;;;;11.02;4.88;;;;;;;6.52;92.21;101328.41;5002247;28;20494;-74
2021/03/04 07:12:17;;;;;;;13.68;5.70;;;;;;;6.56;91.68;101329.38;5002984;28;20030;-76
2021/03/04 07:14:43;;;;;;;17.02;5.13;;;;;;;6.62;91.44;101325.44;4995728;28;20033;-74
2021/03/04 07:17:09;;;;;;;11.18;5.18;;;;;;;6.65;90.47;101319.47;4999095;28;20456;-74
2021/03/04 07:19:36;;;;;;;8.55;4.97;;;;;;;6.62;89.71;101321.97;5001726;28;20100;-73
2021/03/04 07:22:22;;;;;;;9.23;4.78;;;;;;;6.67;89.82;101325.28;5000054;28;20397;-73
2021/03/04 07:24:48;;;;;;;10.80;4.95;;;;;;;6.66;88.92;101314.91;4958798;28;20521;-74
2021/03/04 07:27:17;;;;;;;8.10;4.63;;;;;;;6.62;89.31;101313.97;4964694;28;20074;-73
2021/03/04 07:29:44;;;;;;;9.60;4.20;;;;;;;6.69;88.99;101312.41;4959481;28;20070;-74
2021/03/04 07:32:11;;;;;;;7.95;4.10;;;;;;;6.67;88.69;101314.59;4962957;28;20117;-73
2021/03/04 07:34:38;;;;;;;6.90;3.75;;;;;;;6.60;89.37;101322.28;4952825;28;20037;-74
2021/03/04 07:37:05;;;;;;;8.90;4.03;;;;;;;6.58;89.17;101327.16;4961234;28;20038;-74
2021/03/04 07:39:38;;;;;;;6.13;3.88;;;;;;;6.72;88.62;101322.47;4968710;28;20570;-74
2021/03/04 07:42:16;;;;;;;11.80;4.10;;;;;;;6.65;88.21;101327.50;4948301;28;20052;-73
2021/03/04 07:44:43;;;;;;;7.05;4.13;;;;;;;6.70;88.69;101324.66;4950530;28;20471;-74
2021/03/04 07:47:09;;;;;;;14.20;4.20;;;;;;;6.72;88.40;101317.09;4970304;28;20046;-74
2021/03/04 07:49:39;;;;;;;7.70;4.25;;;;;;;6.74;88.58;101317.59;4967262;28;20046;-73
2021/03/04 07:52:14;;;;;;;7.90;4.13;;;;;;;6.59;89.08;101318.03;4967118;28;20049;-74
2021/03/04 07:54:42;;;;;;;7.93;3.83;;;;;;;6.72;88.57;101321.66;4965655;28;20233;-74
2021/03/04 07:57:12;;;;;;;8.82;3.95;;;;;;;6.75;88.46;101316.50;4945676;28;20035;-74
2021/03/04 07:59:53;;;;;;;9.68;4.20;;;;;;;6.84;87.62;101317.28;4954042;28;20167;-74
2021/03/04 08:02:22;;;;;;;;;;;;;;;6.91;87.97;101322.19;4977070;28;20050;-74
2021/03/04 08:04:48;;;;;;;7.20;3.55;;;;;;;6.90;87.72;101324.06;5003505;28;19924;-74
2021/03/04 08:07:23;;;;;;;9.93;3.80;;;;;;;6.84;87.71;101309.25;5004323;28;20406;-74
2021/03/04 08:09:49;;;;;;;9.38;3.97;;;;;;;6.88;88.05;101317.44;4988253;28;20049;-74
2021/03/04 08:12:15;;;;;;;7.95;3.65;;;;;;;6.79;88.28;101317.47;4990776;28;20037;-74
2021/03/04 08:14:57;;;;;;;9.50;3.85;;;;;;;6.87;87.59;101311.31;4994594;28;20038;-74
2021/03/04 08:17:36;;;;;;;9.20;4.15;;;;;;;6.87;88.22;101305.94;4997725;28;20037;-74
2021/03/04 08:20:07;;;;;;;9.88;4.18;;;;;;;6.94;87.98;101308.97;5001923;28;20548;-74
2021/03/04 08:22:33;;;;;;;10.70;4.10;;;;;;;6.87;87.97;101297.91;5002981;28;20038;-74
2021/03/04 08:25:01;;;;;;;10.43;4.18;;;;;;;6.91;87.44;101298.88;5004228;28;20045;-74
2021/03/04 08:27:28;;;;;;;9.55;4.90;;;;;;;6.96;87.86;101298.72;4995045;28;20025;-73
2021/03/04 08:29:53;;;;;;;8.30;3.65;;;;;;;7.04;87.39;101295.28;5002688;28;20390;-74
2021/03/04 08:32:19;;;;;;;8.13;3.72;;;;;;;6.94;87.14;101298.25;4988152;28;20120;-74
2021/03/04 08:34:44;;;;;;;5.13;3.25;;;;;;;6.91;88.18;101285.47;4999517;28;20042;-74
2021/03/04 08:37:22;;;;;;;6.38;3.50;;;;;;;7.02;87.24;101291.31;4997186;28;20026;-74
2021/03/04 08:39:48;;;;;;;6.90;3.70;;;;;;;7.08;87.21;101284.72;5001830;28;20777;-74
2021/03/04 08:42:13;;;;;;;14.18;3.80;;;;;;;7.13;87.22;101288.03;4994609;28;20029;-74
2021/03/04 08:44:49;;;;;;;8.02;3.67;;;;;;;7.16;87.08;101283.94;5001020;28;20083;-74
2021/03/04 08:47:16;;;;;;;4.90;3.08;;;;;;;7.14;87.04;101281.53;5002499;28;20513;-74
2021/03/04 08:49:55;;;;;;;11.88;3.03;;;;;;;7.06;86.41;101285.03;4999454;28;20038;-75
2021/03/04 08:52:23;;;;;;;11.02;3.42;;;;;;;7.11;87.44;101281.41;4997487;28;20041;-74
2021/03/04 08:54:51;;;;;;;6.38;3.65;;;;;;;7.18;87.18;101279.81;5001381;28;20458;-74
2021/03/04 08:57:27;;;;;;;10.63;3.42;;;;;;;7.25;86.66;101280.16;4996802;28;20486;-74
2021/03/04 09:00:05;;;;;;;7.20;3.47;;;;;;;7.16;86.96;101279.34;4993814;28;20049;-75
2021/03/04 09:02:31;;;;;;;7.93;3.25;;;;;;;7.24;88.96;101283.91;4988327;28;20040;-75
2021/03/04 09:04:56;;;;;;;9.80;3.40;;;;;;;7.40;87.47;101278.06;5002030;28;20045;-74
2021/03/04 09:07:31;;;;;;;5.55;3.13;;;;;;;7.34;87.15;101277.44;4998307;28;20022;-74
2021/03/04 09:10:01;;;;;;;8.75;3.22;;;;;;;7.40;86.47;101267.34;5001673;28;20092;-74
2021/03/04 09:12:27;;;;;;;8.95;3.65;;;;;;;7.25;86.94;101266.75;5001039;28;20076;-75
2021/03/04 09:14:55;;;;;;;8.35;3.40;;;;;;;7.37;86.77;101268.78;5004890;28;20029;-74
2021/03/04 09:17:21;;;;;;;4.75;3.38;;;;;;;7.33;86.81;101262.47;4999548;28;20034;-74
2021/03/04 09:19:52;;;;;;;12.77;3.45;;;;;;;7.58;86.03;101271.56;4990354;28;20401;-74
2021/03/04 09:22:18;;;;;;;10.60;3.50;;;;;;;7.30;86.99;101265.78;5009586;28;20275;-74
2021/03/04 09:24:46;;;;;;;6.55;3.35;;;;;;;7.35;86.29;101260.28;4995995;28;20046;-74
2021/03/04 09:27:13;;;;;;;8.43;3.17;;;;;;;7.52;85.69;101270.16;4995681;28;20042;-74
2021/03/04 09:29:40;;;;;;;11.10;3.50;;;;;;;7.53;86.14;101261.78;5000026;28;20466;-74
2021/03/04 09:32:07;;;;;;;8.20;3.35;;;;;;;7.61;86.02;101260.19;4987933;28;20053;-74
2021/03/04 09:34:43;;;;;;;11.25;3.38;;;;;;;7.49;85.77;101258.19;4988887;28;20108;-74
2021/03/04 09:37:10;;;;;;;8.50;3.00;;;;;;;7.41;86.91;101260.91;5004246;28;20026;-74
2021/03/04 09:39:46;;;;;;;9.85;3.63;;;;;;;7.44;87.04;101261.03;4999873;28;20099;-74
2021/03/04 09:42:14;;;;;;;9.40;3.38;;;;;;;7.65;86.35;101255.78;5000256;28;20080;-74
2021/03/04 09:44:54;;;;;;;5.00;3.22;;;;;;;7.74;86.11;101257.31;4990364;28;20085;-74
2021/03/04 09:47:25;;;;;;;6.43;3.05;;;;;;;7.71;85.72;101257.97;4999700;28;20022;-74
2021/03/04 09:49:54;;;;;;;6.00;3.30;;;;;;;7.77;85.46;101254.03;4994452;28;20463;-74
2021/03/04 09:52:21;;;;;;;12.50;3.70;;;;;;;7.69;85.96;101260.19;5004062;28;20100;-74
2021/03/04 09:54:47;;;;;;;11.05;3.85;;;;;;;7.58;86.38;101253.59;5003321;28;20862;-74
2021/03/04 09:57:17;;;;;;;8.07;3.83;;;;;;;7.52;87.31;101254.88;5002052;28;20030;-74
2021/03/04 09:59:53;;;;;;;15.05;4.60;;;;;;;7.49;86.80;101254.75;5006133;28;20056;-75
2021/03/04 10:02:26;;;;;;;6.20;3.87;;;;;;;7.54;87.64;101247.31;4965963;28;987642;-74
2021/03/04 10:05:03;;;;;;;10.02;4.28;;;;;;;7.55;87.88;101243.50;5010611;28;20030;-75
2021/03/04 10:07:33;;;;;;;14.52;4.53;;;;;;;7.71;87.38;101249.13;5007034;28;20046;-74
2021/03/04 10:10:03;;;;;;;7.80;4.40;;;;;;;7.84;86.14;101250.84;5003103;28;20042;-75
2021/03/04 10:12:29;;;;;;;11.20;4.38;;;;;;;7.92;85.78;101247.31;5004829;28;20041;-74
2021/03/04 10:14:54;;;;;;;16.38;4.20;;;;;;;7.90;85.48;101233.47;5001200;28;20403;-75
2021/03/04 10:17:21;;;;;;;11.13;3.90;;;;;;;7.82;86.33;101236.97;4986364;28;20446;-75
2021/03/04 10:19:48;;;;;;;10.88;3.78;;;;;;;7.81;86.63;101235.41;5003339;28;20038;-75
2021/03/04 10:22:13;;;;;;;8.32;4.25;;;;;;;7.93;86.15;101232.81;4989864;28;20040;-75
2021/03/04 10:24:39;;;;;;;10.73;4.13;;;;;;;7.94;85.90;101235.19;5006130;28;20042;-75
2021/03/04 10:27:06;;;;;;;13.38;4.20;;;;;;;7.95;86.31;101235.97;5005708;28;20046;-75
2021/03/04 10:29:32;;;;;;;11.05;4.35;;;;;;;8.11;85.61;101234.28;5003975;28;20030;-74
2021/03/04 10:31:59;;;;;;;8.30;4.38;;;;;;;7.98;86.29;101235.31;5001756;28;20060;-75
2021/03/04 10:34:25;;;;;;;12.07;4.90;;;;;;;7.77;87.02;101245.97;4995589;28;20030;-77
2021/03/04 10:36:51;;;;;;;11.70;4.45;;;;;;;7.95;87.10;101252.06;5000918;28;20031;-74
2021/03/04 10:39:18;;;;;;;8.48;3.92;;;;;;;8.02;85.31;101253.13;4994889;28;20037;-75
2021/03/04 10:41:45;;;;;;;8.57;3.92;;;;;;;8.04;85.30;101250.91;5005423;28;20118;-76
2021/03/04 10:44:13;;;;;;;9.70;3.95;;;;;;;8.19;84.83;101242.31;5003179;28;20040;-75
2021/03/04 10:46:40;;;;;;;10.35;3.95;;;;;;;8.07;85.67;101247.56;5003709;28;20038;-75
2021/03/04 10:49:07;;;;;;;10.25;4.05;;;;;;;8.16;85.22;101247.53;4988300;28;20042;-75
2021/03/04 10:51:33;;;;;;;10.90;4.25;;;;;;;8.21;85.37;101244.66;5007185;28;20720;-75
2021/03/04 10:53:59;;;;;;;10.10;4.00;;;;;;;8.21;85.53;101244.66;5006325;28;20049;-75
2021/03/04 10:56:24;;;;;;;17.50;4.80;;;;;;;8.32;84.89;101247.81;5004622;28;20030;-75
2021/03/04 10:58:50;;;;;;;12.52;3.88;;;;;;;8.37;84.43;101243.03;4982769;28;20464;-75
2021/03/04 11:01:15;;;;;;;9.68;3.53;;;;;;;8.40;84.07;101253.09;5002891;28;20030;-75
2021/03/04 11:03:41;;;;;;;7.72;3.85;;;;;;;8.33;84.02;101252.84;5004765;28;20030;-75
2021/03/04 11:06:07;;;;;;;12.00;3.80;;;;;;;8.34;84.55;101248.28;5007586;28;20073;-75
2021/03/04 11:08:32;;;;;;;8.02;3.08;;;;;;;8.23;84.51;101258.53;4991501;28;20060;-75
2021/03/04 11:10:58;;;;;;;9.00;3.70;;;;;;;8.15;85.40;101245.97;4986236;28;20189;-76
2021/03/04 11:13:23;;;;;;;9.48;3.13;;;;;;;8.24;84.85;101238.66;4999723;28;20034;-75
2021/03/04 11:15:49;;;;;;;13.95;3.38;;;;;;;8.33;84.34;101249.38;4987548;28;20379;-75
2021/03/04 11:18:14;;;;;;;7.75;3.03;;;;;;;8.36;83.80;101246.06;5003702;28;20045;-76
2021/03/04 11:20:43;;;;;;;9.63;3.08;;;;;;;8.54;82.59;101234.88;4987695;28;20041;-75
2021/03/04 11:23:17;;;;;;;10.18;3.50;;;;;;;8.61;82.53;101248.56;5004933;28;20403;-75
2021/03/04 11:25:43;;;;;;;11.25;3.05;;;;;;;8.59;82.67;101248.13;5002050;28;20081;-75
2021/03/04 11:28:09;;;;;;;9.18;3.33;;;;;;;8.59;83.03;101248.13;5005570;28;20117;-75
2021/03/04 11:30:35;;;;;;;12.07;3.53;;;;;;;8.72;82.60;101244.38;4987184;28;20037;-75